sensor_id;sensor_type;location;lat;lon;timestamp;P1;durP1;ratioP1;P2;durP2;ratioP2
76548;SDS011;65391;52.068;4.542;2023-01-01T00:00:08;38.8;;;34.1;;
76548;SDS011;65391;52.068;4.542;2023-01-01T00:02:32;38.8;;;34.1;;
76548;SDS011;65391;52.068;4.542;2023-01-01T00:04:57;30.4;;;34.7;;
76548;SDS011;65391;52.068;4.542;2023-01-01T00:07:23;30.4;;;34.7;;
76548;SDS011;65391;52.068;4.542;2023-01-01T00:09:47;30.4;;;34.7;;
76548;SDS011;65391;52.068;4.542;2023-01-01T00:12:12;30.4;;;34.7;;
76548;SDS011;65391;52.068;4.542;2023-01-01T00:14:37;28.3;;;18.5;;
76548;SDS011;65391;52.068;4.542;2023-01-01T00:17:02;28.3;;;18.5;;
76548;SDS011;65391;52.068;4.542;2023-01-01T00:19:27;28.3;;;18.5;;
76548;SDS011;65391;52.068;4.542;2023-01-01T00:21:52;28.3;;;18.5;;
76548;SDS011;65391;52.068;4.542;2023-01-01T00:24:17;38;;;26.7;;
76548;SDS011;65391;52.068;4.542;2023-01-01T00:26:42;38;;;26.7;;
76548;SDS011;65391;52.068;4.542;2023-01-01T00:29:07;38;;;26.7;;
76548;SDS011;65391;52.068;4.542;2023-01-01T00:31:33;38;;;26.7;;
76548;SDS011;65391;52.068;4.542;2023-01-01T00:33:57;29;;;16.2;;
76548;SDS011;65391;52.068;4.542;2023-01-01T00:36:23;29;;;16.2;;
76548;SDS011;65391;52.068;4.542;2023-01-01T00:38:47;29;;;16.2;;
76548;SDS011;65391;52.068;4.542;2023-01-01T00:41:13;29;;;16.2;;
76548;SDS011;65391;52.068;4.542;2023-01-01T00:43:37;29;;;16.2;;
76548;SDS011;65391;52.068;4.542;2023-01-01T00:46:03;27.8;;;16.7;;
76548;SDS011;65391;52.068;4.542;2023-01-01T00:48:27;27.8;;;16.7;;
76548;SDS011;65391;52.068;4.542;2023-01-01T00:50:52;27.8;;;16.7;;
76548;SDS011;65391;52.068;4.542;2023-01-01T00:53:17;27.8;;;16.7;;
76548;SDS011;65391;52.068;4.542;2023-01-01T00:55:42;28.5;;;15.7;;
76548;SDS011;65391;52.068;4.542;2023-01-01T00:58:07;28.5;;;15.7;;
76548;SDS011;65391;52.068;4.542;2023-01-01T01:00:32;28.5;;;15.7;;
76548;SDS011;65391;52.068;4.542;2023-01-01T01:02:57;28.5;;;15.7;;
76548;SDS011;65391;52.068;4.542;2023-01-01T01:05:22;28.9;;;15.6;;
76548;SDS011;65391;52.068;4.542;2023-01-01T01:07:47;28.9;;;15.6;;
76548;SDS011;65391;52.068;4.542;2023-01-01T01:10:12;28.9;;;15.6;;
76548;SDS011;65391;52.068;4.542;2023-01-01T01:12:37;28.9;;;15.6;;
76548;SDS011;65391;52.068;4.542;2023-01-01T01:15:04;24.1;;;11;;
76548;SDS011;65391;52.068;4.542;2023-01-01T01:17:28;24.1;;;11;;
76548;SDS011;65391;52.068;4.542;2023-01-01T01:19:52;24.1;;;11;;
76548;SDS011;65391;52.068;4.542;2023-01-01T01:22:17;24.1;;;11;;
76548;SDS011;65391;52.068;4.542;2023-01-01T01:24:42;21.5;;;8.4;;
76548;SDS011;65391;52.068;4.542;2023-01-01T01:27:07;21.5;;;8.4;;
76548;SDS011;65391;52.068;4.542;2023-01-01T01:29:32;21.5;;;8.4;;
76548;SDS011;65391;52.068;4.542;2023-01-01T01:31:57;21.5;;;8.4;;
76548;SDS011;65391;52.068;4.542;2023-01-01T01:34:22;19;;;6.4;;
76548;SDS011;65391;52.068;4.542;2023-01-01T01:36:47;19;;;6.4;;
76548;SDS011;65391;52.068;4.542;2023-01-01T01:39:12;19;;;6.4;;
76548;SDS011;65391;52.068;4.542;2023-01-01T01:41:37;19;;;6.4;;
76548;SDS011;65391;52.068;4.542;2023-01-01T01:44:05;14.3;;;4.9;;
76548;SDS011;65391;52.068;4.542;2023-01-01T01:46:30;14.3;;;4.9;;
76548;SDS011;65391;52.068;4.542;2023-01-01T01:48:52;14.3;;;4.9;;
76548;SDS011;65391;52.068;4.542;2023-01-01T01:51:21;14.3;;;4.9;;
76548;SDS011;65391;52.068;4.542;2023-01-01T01:53:43;14.3;;;4.9;;
76548;SDS011;65391;52.068;4.542;2023-01-01T01:56:11;13.3;;;5.1;;
76548;SDS011;65391;52.068;4.542;2023-01-01T01:58:32;13.3;;;5.1;;
76548;SDS011;65391;52.068;4.542;2023-01-01T02:00:57;13.3;;;5.1;;
76548;SDS011;65391;52.068;4.542;2023-01-01T02:03:25;13.3;;;5.1;;
76548;SDS011;65391;52.068;4.542;2023-01-01T02:05:48;14.1;;;7.8;;
76548;SDS011;65391;52.068;4.542;2023-01-01T02:08:12;14.1;;;7.8;;
76548;SDS011;65391;52.068;4.542;2023-01-01T02:10:37;14.1;;;7.8;;
76548;SDS011;65391;52.068;4.542;2023-01-01T02:13:02;14.1;;;7.8;;
76548;SDS011;65391;52.068;4.542;2023-01-01T02:15:29;16.1;;;6.1;;
76548;SDS011;65391;52.068;4.542;2023-01-01T02:17:55;16.1;;;6.1;;
76548;SDS011;65391;52.068;4.542;2023-01-01T02:20:22;16.1;;;6.1;;
76548;SDS011;65391;52.068;4.542;2023-01-01T02:23:01;16.1;;;6.1;;
76548;SDS011;65391;52.068;4.542;2023-01-01T02:25:09;12;;;4.8;;
76548;SDS011;65391;52.068;4.542;2023-01-01T02:27:35;12;;;4.8;;
76548;SDS011;65391;52.068;4.542;2023-01-01T02:29:59;12;;;4.8;;
76548;SDS011;65391;52.068;4.542;2023-01-01T02:32:24;12;;;4.8;;
76548;SDS011;65391;52.068;4.542;2023-01-01T02:34:50;10.9;;;3.8;;
76548;SDS011;65391;52.068;4.542;2023-01-01T02:37:14;10.9;;;3.8;;
76548;SDS011;65391;52.068;4.542;2023-01-01T02:39:41;10.9;;;3.8;;
76548;SDS011;65391;52.068;4.542;2023-01-01T02:42:03;10.9;;;3.8;;
76548;SDS011;65391;52.068;4.542;2023-01-01T02:44:28;16.8;;;3.5;;
76548;SDS011;65391;52.068;4.542;2023-01-01T02:46:53;16.8;;;3.5;;
76548;SDS011;65391;52.068;4.542;2023-01-01T02:49:17;16.8;;;3.5;;
76548;SDS011;65391;52.068;4.542;2023-01-01T02:51:52;16.8;;;3.5;;
76548;SDS011;65391;52.068;4.542;2023-01-01T02:54:10;11.4;;;4;;
76548;SDS011;65391;52.068;4.542;2023-01-01T02:56:36;11.4;;;4;;
76548;SDS011;65391;52.068;4.542;2023-01-01T02:59:01;11.4;;;4;;
76548;SDS011;65391;52.068;4.542;2023-01-01T03:01:26;11.4;;;4;;
76548;SDS011;65391;52.068;4.542;2023-01-01T03:03:54;11.4;;;4;;
76548;SDS011;65391;52.068;4.542;2023-01-01T03:06:15;9.4;;;3.2;;
76548;SDS011;65391;52.068;4.542;2023-01-01T03:08:43;9.4;;;3.2;;
76548;SDS011;65391;52.068;4.542;2023-01-01T03:11:04;9.4;;;3.2;;
76548;SDS011;65391;52.068;4.542;2023-01-01T03:13:31;9.4;;;3.2;;
76548;SDS011;65391;52.068;4.542;2023-01-01T03:15:56;12.5;;;4.1;;
76548;SDS011;65391;52.068;4.542;2023-01-01T03:18:20;12.5;;;4.1;;
76548;SDS011;65391;52.068;4.542;2023-01-01T03:20:44;12.5;;;4.1;;
76548;SDS011;65391;52.068;4.542;2023-01-01T03:23:10;12.5;;;4.1;;
76548;SDS011;65391;52.068;4.542;2023-01-01T03:25:34;8.1;;;2.7;;
76548;SDS011;65391;52.068;4.542;2023-01-01T03:27:59;8.1;;;2.7;;
76548;SDS011;65391;52.068;4.542;2023-01-01T03:30:23;8.1;;;2.7;;
76548;SDS011;65391;52.068;4.542;2023-01-01T03:32:48;8.1;;;2.7;;
76548;SDS011;65391;52.068;4.542;2023-01-01T03:35:13;8.5;;;2.4;;
76548;SDS011;65391;52.068;4.542;2023-01-01T03:37:38;8.5;;;2.4;;
76548;SDS011;65391;52.068;4.542;2023-01-01T03:40:03;8.5;;;2.4;;
76548;SDS011;65391;52.068;4.542;2023-01-01T03:42:31;8.5;;;2.4;;
76548;SDS011;65391;52.068;4.542;2023-01-01T03:44:54;8.1;;;2.1;;
76548;SDS011;65391;52.068;4.542;2023-01-01T03:47:18;8.1;;;2.1;;
76548;SDS011;65391;52.068;4.542;2023-01-01T03:49:43;8.1;;;2.1;;
76548;SDS011;65391;52.068;4.542;2023-01-01T03:52:14;8.1;;;2.1;;
76548;SDS011;65391;52.068;4.542;2023-01-01T03:54:37;5.4;;;1.3;;
76548;SDS011;65391;52.068;4.542;2023-01-01T03:57:00;5.4;;;1.3;;
76548;SDS011;65391;52.068;4.542;2023-01-01T03:59:24;5.4;;;1.3;;
76548;SDS011;65391;52.068;4.542;2023-01-01T04:01:50;5.4;;;1.3;;
76548;SDS011;65391;52.068;4.542;2023-01-01T04:04:13;7.9;;;1.6;;
76548;SDS011;65391;52.068;4.542;2023-01-01T04:06:38;7.9;;;1.6;;
76548;SDS011;65391;52.068;4.542;2023-01-01T04:09:03;7.9;;;1.6;;
76548;SDS011;65391;52.068;4.542;2023-01-01T04:11:30;7.9;;;1.6;;
76548;SDS011;65391;52.068;4.542;2023-01-01T04:13:53;7.9;;;1.6;;
76548;SDS011;65391;52.068;4.542;2023-01-01T04:16:18;8.2;;;1.3;;
76548;SDS011;65391;52.068;4.542;2023-01-01T04:18:43;8.2;;;1.3;;
76548;SDS011;65391;52.068;4.542;2023-01-01T04:21:08;8.2;;;1.3;;
76548;SDS011;65391;52.068;4.542;2023-01-01T04:23:33;8.2;;;1.3;;
76548;SDS011;65391;52.068;4.542;2023-01-01T04:25:58;8.1;;;1.7;;
76548;SDS011;65391;52.068;4.542;2023-01-01T04:28:23;8.1;;;1.7;;
76548;SDS011;65391;52.068;4.542;2023-01-01T04:30:48;8.1;;;1.7;;
76548;SDS011;65391;52.068;4.542;2023-01-01T04:33:13;8.1;;;1.7;;
76548;SDS011;65391;52.068;4.542;2023-01-01T04:35:38;6.6;;;1.5;;
76548;SDS011;65391;52.068;4.542;2023-01-01T04:38:03;6.6;;;1.5;;
76548;SDS011;65391;52.068;4.542;2023-01-01T04:40:28;6.6;;;1.5;;
76548;SDS011;65391;52.068;4.542;2023-01-01T04:42:53;6.6;;;1.5;;
76548;SDS011;65391;52.068;4.542;2023-01-01T04:45:18;5.7;;;1.7;;
76548;SDS011;65391;52.068;4.542;2023-01-01T04:47:43;5.7;;;1.7;;
76548;SDS011;65391;52.068;4.542;2023-01-01T04:50:08;5.7;;;1.7;;
76548;SDS011;65391;52.068;4.542;2023-01-01T04:52:33;5.7;;;1.7;;
76548;SDS011;65391;52.068;4.542;2023-01-01T04:54:58;10;;;2.1;;
76548;SDS011;65391;52.068;4.542;2023-01-01T04:57:23;10;;;2.1;;
76548;SDS011;65391;52.068;4.542;2023-01-01T04:59:48;10;;;2.1;;
76548;SDS011;65391;52.068;4.542;2023-01-01T05:02:13;10;;;2.1;;
76548;SDS011;65391;52.068;4.542;2023-01-01T05:04:38;11.8;;;2.1;;
76548;SDS011;65391;52.068;4.542;2023-01-01T05:07:03;11.8;;;2.1;;
76548;SDS011;65391;52.068;4.542;2023-01-01T05:09:28;11.8;;;2.1;;
76548;SDS011;65391;52.068;4.542;2023-01-01T05:11:53;11.8;;;2.1;;
76548;SDS011;65391;52.068;4.542;2023-01-01T05:14:18;8.4;;;2.1;;
76548;SDS011;65391;52.068;4.542;2023-01-01T05:16:43;8.4;;;2.1;;
76548;SDS011;65391;52.068;4.542;2023-01-01T05:19:08;8.4;;;2.1;;
76548;SDS011;65391;52.068;4.542;2023-01-01T05:21:34;8.4;;;2.1;;
76548;SDS011;65391;52.068;4.542;2023-01-01T05:23:59;8.4;;;2.1;;
76548;SDS011;65391;52.068;4.542;2023-01-01T05:26:24;10.2;;;2.3;;
76548;SDS011;65391;52.068;4.542;2023-01-01T05:28:48;10.2;;;2.3;;
76548;SDS011;65391;52.068;4.542;2023-01-01T05:31:14;10.2;;;2.3;;
76548;SDS011;65391;52.068;4.542;2023-01-01T05:33:38;10.2;;;2.3;;
76548;SDS011;65391;52.068;4.542;2023-01-01T05:36:04;8.8;;;1.9;;
76548;SDS011;65391;52.068;4.542;2023-01-01T05:38:28;8.8;;;1.9;;
76548;SDS011;65391;52.068;4.542;2023-01-01T05:40:53;8.8;;;1.9;;
76548;SDS011;65391;52.068;4.542;2023-01-01T05:43:18;8.8;;;1.9;;
76548;SDS011;65391;52.068;4.542;2023-01-01T05:45:43;12.9;;;2.3;;
76548;SDS011;65391;52.068;4.542;2023-01-01T05:48:08;12.9;;;2.3;;
76548;SDS011;65391;52.068;4.542;2023-01-01T05:50:33;12.9;;;2.3;;
76548;SDS011;65391;52.068;4.542;2023-01-01T05:52:58;12.9;;;2.3;;
76548;SDS011;65391;52.068;4.542;2023-01-01T05:55:23;13.3;;;2.8;;
76548;SDS011;65391;52.068;4.542;2023-01-01T05:57:48;13.3;;;2.8;;
76548;SDS011;65391;52.068;4.542;2023-01-01T06:00:14;13.3;;;2.8;;
76548;SDS011;65391;52.068;4.542;2023-01-01T06:02:38;13.3;;;2.8;;
76548;SDS011;65391;52.068;4.542;2023-01-01T06:05:03;14.3;;;2.8;;
76548;SDS011;65391;52.068;4.542;2023-01-01T06:07:28;14.3;;;2.8;;
76548;SDS011;65391;52.068;4.542;2023-01-01T06:09:53;14.3;;;2.8;;
76548;SDS011;65391;52.068;4.542;2023-01-01T06:12:18;14.3;;;2.8;;
76548;SDS011;65391;52.068;4.542;2023-01-01T06:14:43;20;;;4;;
76548;SDS011;65391;52.068;4.542;2023-01-01T06:17:08;20;;;4;;
76548;SDS011;65391;52.068;4.542;2023-01-01T06:19:33;20;;;4;;
76548;SDS011;65391;52.068;4.542;2023-01-01T06:21:58;20;;;4;;
76548;SDS011;65391;52.068;4.542;2023-01-01T06:24:23;13.8;;;2.1;;
76548;SDS011;65391;52.068;4.542;2023-01-01T06:26:48;13.8;;;2.1;;
76548;SDS011;65391;52.068;4.542;2023-01-01T06:29:13;13.8;;;2.1;;
76548;SDS011;65391;52.068;4.542;2023-01-01T06:31:38;13.8;;;2.1;;
76548;SDS011;65391;52.068;4.542;2023-01-01T06:34:03;13.8;;;2.1;;
76548;SDS011;65391;52.068;4.542;2023-01-01T06:36:28;15.9;;;2.5;;
76548;SDS011;65391;52.068;4.542;2023-01-01T06:38:54;15.9;;;2.5;;
76548;SDS011;65391;52.068;4.542;2023-01-01T06:41:19;15.9;;;2.5;;
76548;SDS011;65391;52.068;4.542;2023-01-01T06:43:43;15.9;;;2.5;;
76548;SDS011;65391;52.068;4.542;2023-01-01T06:46:13;14.7;;;1.8;;
76548;SDS011;65391;52.068;4.542;2023-01-01T06:48:34;14.7;;;1.8;;
76548;SDS011;65391;52.068;4.542;2023-01-01T06:51:03;14.7;;;1.8;;
76548;SDS011;65391;52.068;4.542;2023-01-01T06:53:23;14.7;;;1.8;;
76548;SDS011;65391;52.068;4.542;2023-01-01T06:55:48;10.8;;;2.1;;
76548;SDS011;65391;52.068;4.542;2023-01-01T06:58:13;10.8;;;2.1;;
76548;SDS011;65391;52.068;4.542;2023-01-01T07:00:38;10.8;;;2.1;;
76548;SDS011;65391;52.068;4.542;2023-01-01T07:03:03;10.8;;;2.1;;
76548;SDS011;65391;52.068;4.542;2023-01-01T07:05:28;8.3;;;2.3;;
76548;SDS011;65391;52.068;4.542;2023-01-01T07:07:53;8.3;;;2.3;;
76548;SDS011;65391;52.068;4.542;2023-01-01T07:10:18;8.3;;;2.3;;
76548;SDS011;65391;52.068;4.542;2023-01-01T07:12:43;8.3;;;2.3;;
76548;SDS011;65391;52.068;4.542;2023-01-01T07:15:09;14.1;;;3.6;;
76548;SDS011;65391;52.068;4.542;2023-01-01T07:17:33;14.1;;;3.6;;
76548;SDS011;65391;52.068;4.542;2023-01-01T07:19:58;14.1;;;3.6;;
76548;SDS011;65391;52.068;4.542;2023-01-01T07:22:23;14.1;;;3.6;;
76548;SDS011;65391;52.068;4.542;2023-01-01T07:24:48;13.4;;;4.2;;
76548;SDS011;65391;52.068;4.542;2023-01-01T07:27:13;13.4;;;4.2;;
76548;SDS011;65391;52.068;4.542;2023-01-01T07:29:38;13.4;;;4.2;;
76548;SDS011;65391;52.068;4.542;2023-01-01T07:32:03;13.4;;;4.2;;
76548;SDS011;65391;52.068;4.542;2023-01-01T07:34:28;14.8;;;2.1;;
76548;SDS011;65391;52.068;4.542;2023-01-01T07:36:53;14.8;;;2.1;;
76548;SDS011;65391;52.068;4.542;2023-01-01T07:39:18;14.8;;;2.1;;
76548;SDS011;65391;52.068;4.542;2023-01-01T07:41:43;14.8;;;2.1;;
76548;SDS011;65391;52.068;4.542;2023-01-01T07:44:08;14.8;;;2.1;;
76548;SDS011;65391;52.068;4.542;2023-01-01T07:46:34;17.1;;;3.2;;
76548;SDS011;65391;52.068;4.542;2023-01-01T07:48:58;17.1;;;3.2;;
76548;SDS011;65391;52.068;4.542;2023-01-01T07:51:23;17.1;;;3.2;;
76548;SDS011;65391;52.068;4.542;2023-01-01T07:53:48;17.1;;;3.2;;
76548;SDS011;65391;52.068;4.542;2023-01-01T07:56:13;12.1;;;2.2;;
76548;SDS011;65391;52.068;4.542;2023-01-01T07:58:38;12.1;;;2.2;;
76548;SDS011;65391;52.068;4.542;2023-01-01T08:01:03;12.1;;;2.2;;
76548;SDS011;65391;52.068;4.542;2023-01-01T08:03:28;12.1;;;2.2;;
76548;SDS011;65391;52.068;4.542;2023-01-01T08:05:53;15.1;;;2.7;;
76548;SDS011;65391;52.068;4.542;2023-01-01T08:08:18;15.1;;;2.7;;
76548;SDS011;65391;52.068;4.542;2023-01-01T08:10:43;15.1;;;2.7;;
76548;SDS011;65391;52.068;4.542;2023-01-01T08:13:08;15.1;;;2.7;;
76548;SDS011;65391;52.068;4.542;2023-01-01T08:15:33;12.7;;;2.8;;
76548;SDS011;65391;52.068;4.542;2023-01-01T08:17:59;12.7;;;2.8;;
76548;SDS011;65391;52.068;4.542;2023-01-01T08:20:24;12.7;;;2.8;;
76548;SDS011;65391;52.068;4.542;2023-01-01T08:22:48;12.7;;;2.8;;
76548;SDS011;65391;52.068;4.542;2023-01-01T08:25:14;13.4;;;1.8;;
76548;SDS011;65391;52.068;4.542;2023-01-01T08:27:38;13.4;;;1.8;;
76548;SDS011;65391;52.068;4.542;2023-01-01T08:30:04;13.4;;;1.8;;
76548;SDS011;65391;52.068;4.542;2023-01-01T08:32:28;13.4;;;1.8;;
76548;SDS011;65391;52.068;4.542;2023-01-01T08:34:53;11;;;1.5;;
76548;SDS011;65391;52.068;4.542;2023-01-01T08:37:18;11;;;1.5;;
76548;SDS011;65391;52.068;4.542;2023-01-01T08:39:43;11;;;1.5;;
76548;SDS011;65391;52.068;4.542;2023-01-01T08:42:08;11;;;1.5;;
76548;SDS011;65391;52.068;4.542;2023-01-01T08:44:33;9.8;;;1.7;;
76548;SDS011;65391;52.068;4.542;2023-01-01T08:46:58;9.8;;;1.7;;
76548;SDS011;65391;52.068;4.542;2023-01-01T08:49:23;9.8;;;1.7;;
76548;SDS011;65391;52.068;4.542;2023-01-01T08:51:48;9.8;;;1.7;;
76548;SDS011;65391;52.068;4.542;2023-01-01T08:54:13;9.8;;;1.7;;
76548;SDS011;65391;52.068;4.542;2023-01-01T08:56:38;7.1;;;1.5;;
76548;SDS011;65391;52.068;4.542;2023-01-01T08:59:03;7.1;;;1.5;;
76548;SDS011;65391;52.068;4.542;2023-01-01T09:01:28;7.1;;;1.5;;
76548;SDS011;65391;52.068;4.542;2023-01-01T09:03:53;7.1;;;1.5;;
76548;SDS011;65391;52.068;4.542;2023-01-01T09:06:18;9;;;2;;
76548;SDS011;65391;52.068;4.542;2023-01-01T09:08:43;9;;;2;;
76548;SDS011;65391;52.068;4.542;2023-01-01T09:13:34;9;;;2;;
76548;SDS011;65391;52.068;4.542;2023-01-01T09:15:58;16.1;;;3.5;;
76548;SDS011;65391;52.068;4.542;2023-01-01T09:18:23;16.1;;;3.5;;
76548;SDS011;65391;52.068;4.542;2023-01-01T09:20:48;16.1;;;3.5;;
76548;SDS011;65391;52.068;4.542;2023-01-01T09:23:13;16.1;;;3.5;;
76548;SDS011;65391;52.068;4.542;2023-01-01T09:25:39;11;;;2.2;;
76548;SDS011;65391;52.068;4.542;2023-01-01T09:28:05;11;;;2.2;;
76548;SDS011;65391;52.068;4.542;2023-01-01T09:30:28;11;;;2.2;;
76548;SDS011;65391;52.068;4.542;2023-01-01T09:32:53;11;;;2.2;;
76548;SDS011;65391;52.068;4.542;2023-01-01T09:35:18;6.8;;;1.5;;
76548;SDS011;65391;52.068;4.542;2023-01-01T09:37:43;6.8;;;1.5;;
76548;SDS011;65391;52.068;4.542;2023-01-01T09:40:10;6.8;;;1.5;;
76548;SDS011;65391;52.068;4.542;2023-01-01T09:42:35;6.8;;;1.5;;
76548;SDS011;65391;52.068;4.542;2023-01-01T09:45:03;15.8;;;5.7;;
76548;SDS011;65391;52.068;4.542;2023-01-01T09:47:25;15.8;;;5.7;;
76548;SDS011;65391;52.068;4.542;2023-01-01T09:49:48;15.8;;;5.7;;
76548;SDS011;65391;52.068;4.542;2023-01-01T09:52:13;15.8;;;5.7;;
76548;SDS011;65391;52.068;4.542;2023-01-01T09:54:39;11;;;3.7;;
76548;SDS011;65391;52.068;4.542;2023-01-01T09:57:05;11;;;3.7;;
76548;SDS011;65391;52.068;4.542;2023-01-01T09:59:28;11;;;3.7;;
76548;SDS011;65391;52.068;4.542;2023-01-01T10:01:56;11;;;3.7;;
76548;SDS011;65391;52.068;4.542;2023-01-01T10:04:27;11;;;3.7;;
76548;SDS011;65391;52.068;4.542;2023-01-01T10:06:46;13.1;;;2;;
76548;SDS011;65391;52.068;4.542;2023-01-01T10:09:12;13.1;;;2;;
76548;SDS011;65391;52.068;4.542;2023-01-01T10:11:38;13.1;;;2;;
76548;SDS011;65391;52.068;4.542;2023-01-01T10:13:58;13.1;;;2;;
76548;SDS011;65391;52.068;4.542;2023-01-01T10:16:29;12.9;;;4.6;;
76548;SDS011;65391;52.068;4.542;2023-01-01T10:18:50;12.9;;;4.6;;
76548;SDS011;65391;52.068;4.542;2023-01-01T10:21:14;12.9;;;4.6;;
76548;SDS011;65391;52.068;4.542;2023-01-01T10:23:40;12.9;;;4.6;;
76548;SDS011;65391;52.068;4.542;2023-01-01T10:26:07;7.4;;;2.4;;
76548;SDS011;65391;52.068;4.542;2023-01-01T10:28:30;7.4;;;2.4;;
76548;SDS011;65391;52.068;4.542;2023-01-01T10:30:57;7.4;;;2.4;;
76548;SDS011;65391;52.068;4.542;2023-01-01T10:33:18;7.4;;;2.4;;
76548;SDS011;65391;52.068;4.542;2023-01-01T10:35:45;20.2;;;7.3;;
76548;SDS011;65391;52.068;4.542;2023-01-01T10:38:11;20.2;;;7.3;;
76548;SDS011;65391;52.068;4.542;2023-01-01T10:40:33;20.2;;;7.3;;
76548;SDS011;65391;52.068;4.542;2023-01-01T10:42:59;20.2;;;7.3;;
76548;SDS011;65391;52.068;4.542;2023-01-01T10:45:28;14.8;;;3.6;;
76548;SDS011;65391;52.068;4.542;2023-01-01T10:48:21;14.8;;;3.6;;
76548;SDS011;65391;52.068;4.542;2023-01-01T10:50:13;14.8;;;3.6;;
76548;SDS011;65391;52.068;4.542;2023-01-01T10:52:39;14.8;;;3.6;;
76548;SDS011;65391;52.068;4.542;2023-01-01T10:55:04;10.1;;;2.7;;
76548;SDS011;65391;52.068;4.542;2023-01-01T10:57:31;10.1;;;2.7;;
76548;SDS011;65391;52.068;4.542;2023-01-01T10:59:53;10.1;;;2.7;;
76548;SDS011;65391;52.068;4.542;2023-01-01T11:02:19;10.1;;;2.7;;
76548;SDS011;65391;52.068;4.542;2023-01-01T11:04:43;16.8;;;3.9;;
76548;SDS011;65391;52.068;4.542;2023-01-01T11:07:12;16.8;;;3.9;;
76548;SDS011;65391;52.068;4.542;2023-01-01T11:09:33;16.8;;;3.9;;
76548;SDS011;65391;52.068;4.542;2023-01-01T11:11:59;16.8;;;3.9;;
76548;SDS011;65391;52.068;4.542;2023-01-01T11:14:25;16.8;;;3.9;;
76548;SDS011;65391;52.068;4.542;2023-01-01T11:16:48;14.7;;;3.2;;
76548;SDS011;65391;52.068;4.542;2023-01-01T11:19:18;14.7;;;3.2;;
76548;SDS011;65391;52.068;4.542;2023-01-01T11:21:38;14.7;;;3.2;;
76548;SDS011;65391;52.068;4.542;2023-01-01T11:24:14;14.7;;;3.2;;
76548;SDS011;65391;52.068;4.542;2023-01-01T11:26:28;14;;;3.8;;
76548;SDS011;65391;52.068;4.542;2023-01-01T11:28:58;14;;;3.8;;
76548;SDS011;65391;52.068;4.542;2023-01-01T11:31:18;14;;;3.8;;
76548;SDS011;65391;52.068;4.542;2023-01-01T11:33:45;14;;;3.8;;
76548;SDS011;65391;52.068;4.542;2023-01-01T11:36:08;10.9;;;2.2;;
76548;SDS011;65391;52.068;4.542;2023-01-01T11:38:34;10.9;;;2.2;;
76548;SDS011;65391;52.068;4.542;2023-01-01T11:41:01;10.9;;;2.2;;
76548;SDS011;65391;52.068;4.542;2023-01-01T11:43:24;10.9;;;2.2;;
76548;SDS011;65391;52.068;4.542;2023-01-01T11:45:49;13.9;;;4;;
76548;SDS011;65391;52.068;4.542;2023-01-01T11:48:15;13.9;;;4;;
76548;SDS011;65391;52.068;4.542;2023-01-01T11:50:39;13.9;;;4;;
76548;SDS011;65391;52.068;4.542;2023-01-01T11:53:16;13.9;;;4;;
76548;SDS011;65391;52.068;4.542;2023-01-01T11:55:35;14.6;;;3.3;;
76548;SDS011;65391;52.068;4.542;2023-01-01T11:57:57;14.6;;;3.3;;
76548;SDS011;65391;52.068;4.542;2023-01-01T12:00:19;14.6;;;3.3;;
76548;SDS011;65391;52.068;4.542;2023-01-01T12:02:47;14.6;;;3.3;;
76548;SDS011;65391;52.068;4.542;2023-01-01T12:05:12;12.5;;;2.6;;
76548;SDS011;65391;52.068;4.542;2023-01-01T12:07:34;12.5;;;2.6;;
76548;SDS011;65391;52.068;4.542;2023-01-01T12:10:00;12.5;;;2.6;;
76548;SDS011;65391;52.068;4.542;2023-01-01T12:12:26;12.5;;;2.6;;
76548;SDS011;65391;52.068;4.542;2023-01-01T12:14:51;15.8;;;3.3;;
76548;SDS011;65391;52.068;4.542;2023-01-01T12:17:17;15.8;;;3.3;;
76548;SDS011;65391;52.068;4.542;2023-01-01T12:19:40;15.8;;;3.3;;
76548;SDS011;65391;52.068;4.542;2023-01-01T12:22:04;15.8;;;3.3;;
76548;SDS011;65391;52.068;4.542;2023-01-01T12:24:31;15.8;;;3.3;;
76548;SDS011;65391;52.068;4.542;2023-01-01T12:27:01;12.8;;;2.1;;
76548;SDS011;65391;52.068;4.542;2023-01-01T12:29:28;12.8;;;2.1;;
76548;SDS011;65391;52.068;4.542;2023-01-01T12:31:47;12.8;;;2.1;;
76548;SDS011;65391;52.068;4.542;2023-01-01T12:34:10;12.8;;;2.1;;
76548;SDS011;65391;52.068;4.542;2023-01-01T12:36:39;13.6;;;3.9;;
76548;SDS011;65391;52.068;4.542;2023-01-01T12:39:21;13.6;;;3.9;;
76548;SDS011;65391;52.068;4.542;2023-01-01T12:41:26;13.6;;;3.9;;
76548;SDS011;65391;52.068;4.542;2023-01-01T12:43:53;13.6;;;3.9;;
76548;SDS011;65391;52.068;4.542;2023-01-01T12:46:22;13.4;;;3.4;;
76548;SDS011;65391;52.068;4.542;2023-01-01T12:48:44;13.4;;;3.4;;
76548;SDS011;65391;52.068;4.542;2023-01-01T12:51:06;13.4;;;3.4;;
76548;SDS011;65391;52.068;4.542;2023-01-01T12:53:32;13.4;;;3.4;;
76548;SDS011;65391;52.068;4.542;2023-01-01T12:56:03;18.9;;;6.1;;
76548;SDS011;65391;52.068;4.542;2023-01-01T12:58:20;18.9;;;6.1;;
76548;SDS011;65391;52.068;4.542;2023-01-01T13:00:50;18.9;;;6.1;;
76548;SDS011;65391;52.068;4.542;2023-01-01T13:03:13;18.9;;;6.1;;
76548;SDS011;65391;52.068;4.542;2023-01-01T13:05:36;20.4;;;8.2;;
76548;SDS011;65391;52.068;4.542;2023-01-01T13:07:59;20.4;;;8.2;;
76548;SDS011;65391;52.068;4.542;2023-01-01T13:10:25;20.4;;;8.2;;
76548;SDS011;65391;52.068;4.542;2023-01-01T13:12:49;20.4;;;8.2;;
76548;SDS011;65391;52.068;4.542;2023-01-01T13:15:47;16.9;;;4.3;;
76548;SDS011;65391;52.068;4.542;2023-01-01T13:17:39;16.9;;;4.3;;
76548;SDS011;65391;52.068;4.542;2023-01-01T13:20:14;16.9;;;4.3;;
76548;SDS011;65391;52.068;4.542;2023-01-01T13:22:36;16.9;;;4.3;;
76548;SDS011;65391;52.068;4.542;2023-01-01T13:25:02;12.7;;;3.8;;
76548;SDS011;65391;52.068;4.542;2023-01-01T13:27:51;12.7;;;3.8;;
76548;SDS011;65391;52.068;4.542;2023-01-01T13:29:44;12.7;;;3.8;;
76548;SDS011;65391;52.068;4.542;2023-01-01T13:32:11;12.7;;;3.8;;
76548;SDS011;65391;52.068;4.542;2023-01-01T13:34:37;12.7;;;3.8;;
76548;SDS011;65391;52.068;4.542;2023-01-01T13:37:39;15.5;;;4.2;;
76548;SDS011;65391;52.068;4.542;2023-01-01T13:39:49;15.5;;;4.2;;
76548;SDS011;65391;52.068;4.542;2023-01-01T13:41:49;15.5;;;4.2;;
76548;SDS011;65391;52.068;4.542;2023-01-01T13:44:18;15.5;;;4.2;;
76548;SDS011;65391;52.068;4.542;2023-01-01T13:46:42;18;;;5.2;;
76548;SDS011;65391;52.068;4.542;2023-01-01T13:49:11;18;;;5.2;;
76548;SDS011;65391;52.068;4.542;2023-01-01T13:51:44;18;;;5.2;;
76548;SDS011;65391;52.068;4.542;2023-01-01T13:54:03;18;;;5.2;;
76548;SDS011;65391;52.068;4.542;2023-01-01T13:56:25;17.8;;;5.3;;
76548;SDS011;65391;52.068;4.542;2023-01-01T13:58:54;17.8;;;5.3;;
76548;SDS011;65391;52.068;4.542;2023-01-01T14:01:20;17.8;;;5.3;;
76548;SDS011;65391;52.068;4.542;2023-01-01T14:03:37;17.8;;;5.3;;
76548;SDS011;65391;52.068;4.542;2023-01-01T14:06:01;16.2;;;3.7;;
76548;SDS011;65391;52.068;4.542;2023-01-01T14:08:26;16.2;;;3.7;;
76548;SDS011;65391;52.068;4.542;2023-01-01T14:10:49;16.2;;;3.7;;
76548;SDS011;65391;52.068;4.542;2023-01-01T14:13:15;16.2;;;3.7;;
76548;SDS011;65391;52.068;4.542;2023-01-01T14:15:40;13.3;;;2.8;;
76548;SDS011;65391;52.068;4.542;2023-01-01T14:18:06;13.3;;;2.8;;
76548;SDS011;65391;52.068;4.542;2023-01-01T14:20:32;13.3;;;2.8;;
76548;SDS011;65391;52.068;4.542;2023-01-01T14:22:54;13.3;;;2.8;;
76548;SDS011;65391;52.068;4.542;2023-01-01T14:25:24;11.8;;;3;;
76548;SDS011;65391;52.068;4.542;2023-01-01T14:27:44;11.8;;;3;;
76548;SDS011;65391;52.068;4.542;2023-01-01T14:30:14;11.8;;;3;;
76548;SDS011;65391;52.068;4.542;2023-01-01T14:32:34;11.8;;;3;;
76548;SDS011;65391;52.068;4.542;2023-01-01T14:34:59;11.8;;;3;;
76548;SDS011;65391;52.068;4.542;2023-01-01T14:37:24;16.2;;;4;;
76548;SDS011;65391;52.068;4.542;2023-01-01T14:40:04;16.2;;;4;;
76548;SDS011;65391;52.068;4.542;2023-01-01T14:42:15;16.2;;;4;;
76548;SDS011;65391;52.068;4.542;2023-01-01T14:44:41;16.2;;;4;;
76548;SDS011;65391;52.068;4.542;2023-01-01T14:47:05;12.7;;;3.4;;
76548;SDS011;65391;52.068;4.542;2023-01-01T14:49:30;12.7;;;3.4;;
76548;SDS011;65391;52.068;4.542;2023-01-01T14:51:56;12.7;;;3.4;;
76548;SDS011;65391;52.068;4.542;2023-01-01T14:54:20;12.7;;;3.4;;
76548;SDS011;65391;52.068;4.542;2023-01-01T14:56:45;15.6;;;3.1;;